sensor_id;sensor_type;location;lat;lon;timestamp;P1;durP1;ratioP1;P2;durP2;ratioP2
65368;SDS011;51970;53.484;49.488;2023-08-06T00:00:55;16.30;;;10.98;;
65368;SDS011;51970;53.484;49.488;2023-08-06T00:03:21;17.40;;;11.82;;
65368;SDS011;51970;53.484;49.488;2023-08-06T00:05:47;19.98;;;12.40;;
65368;SDS011;51970;53.484;49.488;2023-08-06T00:08:13;18.23;;;11.80;;
65368;SDS011;51970;53.484;49.488;2023-08-06T00:10:39;16.10;;;8.30;;
65368;SDS011;51970;53.484;49.488;2023-08-06T00:13:07;20.98;;;11.48;;
65368;SDS011;51970;53.484;49.488;2023-08-06T00:15:33;18.92;;;12.48;;
65368;SDS011;51970;53.484;49.488;2023-08-06T00:17:59;16.83;;;11.63;;
65368;SDS011;51970;53.484;49.488;2023-08-06T00:20:25;17.30;;;12.90;;
65368;SDS011;51970;53.484;49.488;2023-08-06T00:22:51;16.17;;;11.25;;
65368;SDS011;51970;53.484;49.488;2023-08-06T00:25:17;19.98;;;12.18;;
65368;SDS011;51970;53.484;49.488;2023-08-06T00:27:43;16.40;;;12.07;;
65368;SDS011;51970;53.484;49.488;2023-08-06T00:30:09;15.50;;;12.38;;
65368;SDS011;51970;53.484;49.488;2023-08-06T00:32:35;19.58;;;11.23;;
65368;SDS011;51970;53.484;49.488;2023-08-06T00:35:07;21.52;;;12.10;;
65368;SDS011;51970;53.484;49.488;2023-08-06T00:37:33;20.60;;;12.93;;
65368;SDS011;51970;53.484;49.488;2023-08-06T00:39:59;22.67;;;11.77;;
65368;SDS011;51970;53.484;49.488;2023-08-06T00:42:25;22.90;;;12.80;;
65368;SDS011;51970;53.484;49.488;2023-08-06T00:44:51;21.38;;;13.10;;
65368;SDS011;51970;53.484;49.488;2023-08-06T00:47:17;17.98;;;11.85;;
65368;SDS011;51970;53.484;49.488;2023-08-06T00:49:44;23.88;;;13.68;;
65368;SDS011;51970;53.484;49.488;2023-08-06T00:52:10;25.05;;;13.35;;
65368;SDS011;51970;53.484;49.488;2023-08-06T00:54:36;25.45;;;13.77;;
65368;SDS011;51970;53.484;49.488;2023-08-06T00:57:02;23.05;;;13.52;;
65368;SDS011;51970;53.484;49.488;2023-08-06T00:59:30;26.52;;;14.52;;
65368;SDS011;51970;53.484;49.488;2023-08-06T01:01:57;24.35;;;14.98;;
65368;SDS011;51970;53.484;49.488;2023-08-06T01:04:23;23.15;;;14.13;;
65368;SDS011;51970;53.484;49.488;2023-08-06T01:17:45;28.80;;;15.05;;
65368;SDS011;51970;53.484;49.488;2023-08-06T01:20:11;29.30;;;14.45;;
65368;SDS011;51970;53.484;49.488;2023-08-06T01:22:37;23.10;;;14.05;;
65368;SDS011;51970;53.484;49.488;2023-08-06T01:25:04;24.95;;;14.82;;
65368;SDS011;51970;53.484;49.488;2023-08-06T01:27:38;26.00;;;13.70;;
65368;SDS011;51970;53.484;49.488;2023-08-06T01:30:13;24.08;;;13.85;;
65368;SDS011;51970;53.484;49.488;2023-08-06T01:32:47;25.75;;;13.52;;
65368;SDS011;51970;53.484;49.488;2023-08-06T01:35:21;37.28;;;13.88;;
65368;SDS011;51970;53.484;49.488;2023-08-06T01:37:48;23.00;;;13.55;;
65368;SDS011;51970;53.484;49.488;2023-08-06T01:40:14;25.58;;;13.23;;
65368;SDS011;51970;53.484;49.488;2023-08-06T01:42:40;34.25;;;14.02;;
65368;SDS011;51970;53.484;49.488;2023-08-06T01:45:07;35.15;;;13.55;;
65368;SDS011;51970;53.484;49.488;2023-08-06T01:47:34;23.25;;;14.02;;
65368;SDS011;51970;53.484;49.488;2023-08-06T01:50:01;24.27;;;12.38;;
65368;SDS011;51970;53.484;49.488;2023-08-06T01:52:27;24.67;;;15.55;;
65368;SDS011;51970;53.484;49.488;2023-08-06T01:54:54;23.80;;;13.00;;
65368;SDS011;51970;53.484;49.488;2023-08-06T01:57:20;26.83;;;14.02;;
65368;SDS011;51970;53.484;49.488;2023-08-06T01:59:46;23.98;;;14.10;;
65368;SDS011;51970;53.484;49.488;2023-08-06T02:02:12;23.10;;;14.68;;
65368;SDS011;51970;53.484;49.488;2023-08-06T02:04:38;25.45;;;13.35;;
65368;SDS011;51970;53.484;49.488;2023-08-06T02:07:04;22.23;;;13.75;;
65368;SDS011;51970;53.484;49.488;2023-08-06T02:09:30;24.88;;;12.50;;
65368;SDS011;51970;53.484;49.488;2023-08-06T02:11:56;22.08;;;13.68;;
65368;SDS011;51970;53.484;49.488;2023-08-06T02:14:23;18.30;;;12.82;;
65368;SDS011;51970;53.484;49.488;2023-08-06T02:16:49;27.88;;;13.48;;
65368;SDS011;51970;53.484;49.488;2023-08-06T02:19:15;24.85;;;13.18;;
65368;SDS011;51970;53.484;49.488;2023-08-06T02:21:42;24.48;;;12.35;;
65368;SDS011;51970;53.484;49.488;2023-08-06T02:24:08;19.60;;;12.90;;
65368;SDS011;51970;53.484;49.488;2023-08-06T02:26:34;22.88;;;12.68;;
65368;SDS011;51970;53.484;49.488;2023-08-06T02:29:00;22.02;;;13.07;;
65368;SDS011;51970;53.484;49.488;2023-08-06T02:31:26;15.85;;;11.57;;
65368;SDS011;51970;53.484;49.488;2023-08-06T02:33:57;16.50;;;12.15;;
65368;SDS011;51970;53.484;49.488;2023-08-06T02:36:24;21.67;;;9.38;;
65368;SDS011;51970;53.484;49.488;2023-08-06T02:38:50;17.45;;;12.52;;
65368;SDS011;51970;53.484;49.488;2023-08-06T02:41:16;25.17;;;11.85;;
65368;SDS011;51970;53.484;49.488;2023-08-06T02:43:42;25.33;;;11.70;;
65368;SDS011;51970;53.484;49.488;2023-08-06T02:46:08;19.42;;;12.27;;
65368;SDS011;51970;53.484;49.488;2023-08-06T02:48:34;26.67;;;13.27;;
65368;SDS011;51970;53.484;49.488;2023-08-06T02:51:00;22.55;;;12.07;;
65368;SDS011;51970;53.484;49.488;2023-08-06T02:53:26;22.95;;;12.90;;
65368;SDS011;51970;53.484;49.488;2023-08-06T02:55:52;23.08;;;12.90;;
65368;SDS011;51970;53.484;49.488;2023-08-06T02:58:18;26.20;;;12.65;;
65368;SDS011;51970;53.484;49.488;2023-08-06T03:01:00;27.42;;;13.32;;
65368;SDS011;51970;53.484;49.488;2023-08-06T03:03:32;20.25;;;10.75;;
65368;SDS011;51970;53.484;49.488;2023-08-06T03:05:59;22.83;;;11.63;;
65368;SDS011;51970;53.484;49.488;2023-08-06T03:08:25;21.27;;;12.95;;
65368;SDS011;51970;53.484;49.488;2023-08-06T03:10:52;18.25;;;9.98;;
65368;SDS011;51970;53.484;49.488;2023-08-06T03:13:18;17.23;;;10.38;;
65368;SDS011;51970;53.484;49.488;2023-08-06T03:15:59;21.00;;;9.23;;
65368;SDS011;51970;53.484;49.488;2023-08-06T03:18:26;15.13;;;8.13;;
65368;SDS011;51970;53.484;49.488;2023-08-06T03:20:52;14.15;;;8.38;;
65368;SDS011;51970;53.484;49.488;2023-08-06T03:23:18;11.35;;;8.02;;
65368;SDS011;51970;53.484;49.488;2023-08-06T03:25:45;12.63;;;9.63;;
65368;SDS011;51970;53.484;49.488;2023-08-06T03:28:11;8.75;;;6.75;;
65368;SDS011;51970;53.484;49.488;2023-08-06T03:30:37;11.98;;;7.13;;
65368;SDS011;51970;53.484;49.488;2023-08-06T03:33:04;9.48;;;6.47;;
65368;SDS011;51970;53.484;49.488;2023-08-06T03:35:36;11.77;;;6.38;;
65368;SDS011;51970;53.484;49.488;2023-08-06T03:38:02;11.90;;;6.85;;
65368;SDS011;51970;53.484;49.488;2023-08-06T03:40:28;10.98;;;6.88;;
65368;SDS011;51970;53.484;49.488;2023-08-06T03:42:54;11.50;;;6.85;;
65368;SDS011;51970;53.484;49.488;2023-08-06T03:45:20;12.98;;;7.00;;
65368;SDS011;51970;53.484;49.488;2023-08-06T03:47:46;10.07;;;5.10;;
65368;SDS011;51970;53.484;49.488;2023-08-06T03:50:12;12.38;;;7.10;;
65368;SDS011;51970;53.484;49.488;2023-08-06T03:52:38;9.32;;;6.88;;
65368;SDS011;51970;53.484;49.488;2023-08-06T03:55:04;10.68;;;6.78;;
65368;SDS011;51970;53.484;49.488;2023-08-06T03:57:30;12.65;;;7.80;;
65368;SDS011;51970;53.484;49.488;2023-08-06T03:59:56;14.38;;;7.35;;
65368;SDS011;51970;53.484;49.488;2023-08-06T04:02:22;13.50;;;7.10;;
65368;SDS011;51970;53.484;49.488;2023-08-06T04:04:48;13.45;;;6.60;;
65368;SDS011;51970;53.484;49.488;2023-08-06T04:07:14;9.73;;;7.10;;
65368;SDS011;51970;53.484;49.488;2023-08-06T04:12:26;16.15;;;7.75;;
65368;SDS011;51970;53.484;49.488;2023-08-06T04:14:52;11.60;;;7.25;;
65368;SDS011;51970;53.484;49.488;2023-08-06T04:17:19;10.25;;;6.82;;
65368;SDS011;51970;53.484;49.488;2023-08-06T04:19:50;8.57;;;6.30;;
65368;SDS011;51970;53.484;49.488;2023-08-06T04:22:17;12.60;;;6.45;;
65368;SDS011;51970;53.484;49.488;2023-08-06T04:24:43;11.00;;;6.90;;
65368;SDS011;51970;53.484;49.488;2023-08-06T04:27:10;8.32;;;5.97;;
65368;SDS011;51970;53.484;49.488;2023-08-06T04:29:36;10.30;;;6.20;;
65368;SDS011;51970;53.484;49.488;2023-08-06T04:32:06;8.57;;;4.90;;
65368;SDS011;51970;53.484;49.488;2023-08-06T04:34:39;12.95;;;5.70;;
65368;SDS011;51970;53.484;49.488;2023-08-06T04:37:05;9.57;;;5.53;;
65368;SDS011;51970;53.484;49.488;2023-08-06T04:39:31;13.57;;;5.43;;
65368;SDS011;51970;53.484;49.488;2023-08-06T04:41:57;10.40;;;4.05;;
65368;SDS011;51970;53.484;49.488;2023-08-06T04:44:23;9.73;;;6.05;;
65368;SDS011;51970;53.484;49.488;2023-08-06T04:46:49;13.20;;;5.22;;
65368;SDS011;51970;53.484;49.488;2023-08-06T04:49:17;7.40;;;4.70;;
65368;SDS011;51970;53.484;49.488;2023-08-06T04:51:43;9.30;;;6.00;;
65368;SDS011;51970;53.484;49.488;2023-08-06T04:54:09;12.90;;;5.68;;
65368;SDS011;51970;53.484;49.488;2023-08-06T04:56:35;8.55;;;5.40;;
65368;SDS011;51970;53.484;49.488;2023-08-06T04:59:01;11.88;;;6.15;;
65368;SDS011;51970;53.484;49.488;2023-08-06T05:01:27;12.32;;;6.22;;
65368;SDS011;51970;53.484;49.488;2023-08-06T05:03:54;10.55;;;6.85;;
65368;SDS011;51970;53.484;49.488;2023-08-06T05:06:20;9.05;;;5.93;;
65368;SDS011;51970;53.484;49.488;2023-08-06T05:08:46;11.65;;;6.57;;
65368;SDS011;51970;53.484;49.488;2023-08-06T05:11:12;11.25;;;5.90;;
65368;SDS011;51970;53.484;49.488;2023-08-06T05:13:38;12.40;;;4.85;;
65368;SDS011;51970;53.484;49.488;2023-08-06T05:16:04;9.32;;;4.97;;
65368;SDS011;51970;53.484;49.488;2023-08-06T05:18:30;7.95;;;5.70;;
65368;SDS011;51970;53.484;49.488;2023-08-06T05:20:56;9.27;;;5.50;;
65368;SDS011;51970;53.484;49.488;2023-08-06T05:23:22;10.05;;;5.60;;
65368;SDS011;51970;53.484;49.488;2023-08-06T05:25:48;11.10;;;6.40;;
65368;SDS011;51970;53.484;49.488;2023-08-06T05:28:14;9.73;;;4.32;;
65368;SDS011;51970;53.484;49.488;2023-08-06T05:30:41;12.23;;;5.95;;
65368;SDS011;51970;53.484;49.488;2023-08-06T05:33:07;7.72;;;5.20;;
65368;SDS011;51970;53.484;49.488;2023-08-06T05:35:40;9.43;;;5.57;;
65368;SDS011;51970;53.484;49.488;2023-08-06T05:38:07;10.27;;;6.07;;
65368;SDS011;51970;53.484;49.488;2023-08-06T05:40:33;11.55;;;6.03;;
65368;SDS011;51970;53.484;49.488;2023-08-06T05:43:00;10.68;;;5.80;;
65368;SDS011;51970;53.484;49.488;2023-08-06T05:45:26;13.02;;;4.85;;
65368;SDS011;51970;53.484;49.488;2023-08-06T05:47:52;7.97;;;5.47;;
65368;SDS011;51970;53.484;49.488;2023-08-06T05:50:19;10.32;;;5.10;;
65368;SDS011;51970;53.484;49.488;2023-08-06T05:52:45;9.23;;;4.53;;
65368;SDS011;51970;53.484;49.488;2023-08-06T05:55:11;7.40;;;4.28;;
65368;SDS011;51970;53.484;49.488;2023-08-06T05:57:37;7.80;;;5.18;;
65368;SDS011;51970;53.484;49.488;2023-08-06T06:00:03;11.15;;;5.88;;
65368;SDS011;51970;53.484;49.488;2023-08-06T06:02:31;8.25;;;5.70;;
65368;SDS011;51970;53.484;49.488;2023-08-06T06:04:57;8.52;;;4.68;;
65368;SDS011;51970;53.484;49.488;2023-08-06T06:07:23;10.70;;;5.55;;
65368;SDS011;51970;53.484;49.488;2023-08-06T06:09:49;10.43;;;5.32;;
65368;SDS011;51970;53.484;49.488;2023-08-06T06:12:15;7.30;;;4.53;;
65368;SDS011;51970;53.484;49.488;2023-08-06T06:14:41;9.95;;;5.25;;
65368;SDS011;51970;53.484;49.488;2023-08-06T06:17:07;9.02;;;4.05;;
65368;SDS011;51970;53.484;49.488;2023-08-06T06:19:33;8.27;;;4.90;;
65368;SDS011;51970;53.484;49.488;2023-08-06T06:21:59;7.30;;;3.92;;
65368;SDS011;51970;53.484;49.488;2023-08-06T06:24:25;7.95;;;4.78;;
65368;SDS011;51970;53.484;49.488;2023-08-06T06:26:52;7.88;;;5.20;;
65368;SDS011;51970;53.484;49.488;2023-08-06T06:29:18;9.73;;;4.53;;
65368;SDS011;51970;53.484;49.488;2023-08-06T06:31:44;8.32;;;4.32;;
65368;SDS011;51970;53.484;49.488;2023-08-06T06:34:15;8.52;;;4.47;;
65368;SDS011;51970;53.484;49.488;2023-08-06T06:36:41;9.13;;;5.72;;
65368;SDS011;51970;53.484;49.488;2023-08-06T06:39:07;7.35;;;4.53;;
65368;SDS011;51970;53.484;49.488;2023-08-06T06:41:33;13.80;;;5.82;;
65368;SDS011;51970;53.484;49.488;2023-08-06T06:43:59;7.47;;;4.07;;
65368;SDS011;51970;53.484;49.488;2023-08-06T06:46:25;7.22;;;4.43;;
65368;SDS011;51970;53.484;49.488;2023-08-06T06:48:51;7.45;;;4.65;;
65368;SDS011;51970;53.484;49.488;2023-08-06T06:51:17;10.43;;;4.45;;
65368;SDS011;51970;53.484;49.488;2023-08-06T06:53:44;6.20;;;3.47;;
65368;SDS011;51970;53.484;49.488;2023-08-06T06:56:10;8.65;;;4.13;;
65368;SDS011;51970;53.484;49.488;2023-08-06T06:58:36;9.57;;;4.38;;
65368;SDS011;51970;53.484;49.488;2023-08-06T07:01:04;13.10;;;2.72;;
65368;SDS011;51970;53.484;49.488;2023-08-06T07:03:30;7.45;;;4.35;;
65368;SDS011;51970;53.484;49.488;2023-08-06T07:05:59;11.65;;;4.40;;
65368;SDS011;51970;53.484;49.488;2023-08-06T07:08:25;7.78;;;4.43;;
65368;SDS011;51970;53.484;49.488;2023-08-06T07:10:59;9.30;;;4.28;;
65368;SDS011;51970;53.484;49.488;2023-08-06T07:13:27;12.13;;;4.30;;
65368;SDS011;51970;53.484;49.488;2023-08-06T07:15:53;7.70;;;4.50;;
65368;SDS011;51970;53.484;49.488;2023-08-06T07:18:20;11.40;;;4.55;;
65368;SDS011;51970;53.484;49.488;2023-08-06T07:20:50;13.63;;;4.78;;
65368;SDS011;51970;53.484;49.488;2023-08-06T07:23:17;7.18;;;3.63;;
65368;SDS011;51970;53.484;49.488;2023-08-06T07:25:45;6.68;;;4.35;;
65368;SDS011;51970;53.484;49.488;2023-08-06T07:28:12;10.43;;;3.58;;
65368;SDS011;51970;53.484;49.488;2023-08-06T07:30:39;9.60;;;4.45;;
65368;SDS011;51970;53.484;49.488;2023-08-06T07:33:06;8.82;;;3.60;;
65368;SDS011;51970;53.484;49.488;2023-08-06T07:35:37;6.75;;;3.70;;
65368;SDS011;51970;53.484;49.488;2023-08-06T07:38:04;6.53;;;3.85;;
65368;SDS011;51970;53.484;49.488;2023-08-06T07:40:30;8.60;;;3.85;;
65368;SDS011;51970;53.484;49.488;2023-08-06T07:42:56;7.85;;;4.68;;
65368;SDS011;51970;53.484;49.488;2023-08-06T07:45:22;8.82;;;4.97;;
65368;SDS011;51970;53.484;49.488;2023-08-06T07:47:48;6.95;;;4.00;;
65368;SDS011;51970;53.484;49.488;2023-08-06T07:50:14;11.35;;;3.58;;
65368;SDS011;51970;53.484;49.488;2023-08-06T07:52:40;7.40;;;3.97;;
65368;SDS011;51970;53.484;49.488;2023-08-06T07:55:06;8.05;;;3.50;;
65368;SDS011;51970;53.484;49.488;2023-08-06T07:57:33;7.78;;;4.22;;
65368;SDS011;51970;53.484;49.488;2023-08-06T08:00:00;5.47;;;1.88;;
65368;SDS011;51970;53.484;49.488;2023-08-06T08:02:27;7.38;;;4.05;;
65368;SDS011;51970;53.484;49.488;2023-08-06T08:04:53;6.45;;;3.95;;
65368;SDS011;51970;53.484;49.488;2023-08-06T08:07:19;9.38;;;3.80;;
65368;SDS011;51970;53.484;49.488;2023-08-06T08:09:45;7.35;;;3.70;;
65368;SDS011;51970;53.484;49.488;2023-08-06T08:12:11;7.38;;;4.63;;
65368;SDS011;51970;53.484;49.488;2023-08-06T08:14:37;12.77;;;4.95;;
65368;SDS011;51970;53.484;49.488;2023-08-06T08:17:03;7.05;;;4.35;;
65368;SDS011;51970;53.484;49.488;2023-08-06T08:19:31;11.25;;;3.88;;
65368;SDS011;51970;53.484;49.488;2023-08-06T08:22:00;13.57;;;4.03;;
65368;SDS011;51970;53.484;49.488;2023-08-06T08:24:26;9.93;;;4.22;;
65368;SDS011;51970;53.484;49.488;2023-08-06T08:26:52;8.60;;;3.60;;
65368;SDS011;51970;53.484;49.488;2023-08-06T08:29:19;7.47;;;4.00;;
65368;SDS011;51970;53.484;49.488;2023-08-06T08:31:46;7.88;;;3.63;;
65368;SDS011;51970;53.484;49.488;2023-08-06T08:34:20;10.75;;;3.72;;
65368;SDS011;51970;53.484;49.488;2023-08-06T08:36:46;6.30;;;4.07;;
65368;SDS011;51970;53.484;49.488;2023-08-06T08:39:13;5.47;;;2.90;;
65368;SDS011;51970;53.484;49.488;2023-08-06T08:41:39;6.82;;;3.28;;
65368;SDS011;51970;53.484;49.488;2023-08-06T08:44:09;5.50;;;3.10;;
65368;SDS011;51970;53.484;49.488;2023-08-06T08:46:36;7.75;;;4.40;;
65368;SDS011;51970;53.484;49.488;2023-08-06T08:49:03;8.65;;;3.90;;
65368;SDS011;51970;53.484;49.488;2023-08-06T08:51:30;15.52;;;4.03;;
65368;SDS011;51970;53.484;49.488;2023-08-06T08:53:58;5.90;;;2.75;;
65368;SDS011;51970;53.484;49.488;2023-08-06T08:56:24;6.00;;;3.15;;
65368;SDS011;51970;53.484;49.488;2023-08-06T08:58:50;7.18;;;3.53;;
65368;SDS011;51970;53.484;49.488;2023-08-06T09:01:18;6.15;;;3.03;;
65368;SDS011;51970;53.484;49.488;2023-08-06T09:03:46;6.90;;;3.17;;
65368;SDS011;51970;53.484;49.488;2023-08-06T09:06:12;10.60;;;3.97;;
65368;SDS011;51970;53.484;49.488;2023-08-06T09:08:41;7.47;;;3.63;;
65368;SDS011;51970;53.484;49.488;2023-08-06T09:11:12;6.85;;;2.88;;
65368;SDS011;51970;53.484;49.488;2023-08-06T09:13:39;6.75;;;3.53;;
65368;SDS011;51970;53.484;49.488;2023-08-06T09:16:05;7.10;;;4.60;;
65368;SDS011;51970;53.484;49.488;2023-08-06T09:18:31;6.35;;;3.60;;
65368;SDS011;51970;53.484;49.488;2023-08-06T09:20:57;8.98;;;4.18;;
65368;SDS011;51970;53.484;49.488;2023-08-06T09:23:28;9.43;;;2.53;;
65368;SDS011;51970;53.484;49.488;2023-08-06T09:25:56;8.07;;;3.83;;
65368;SDS011;51970;53.484;49.488;2023-08-06T09:28:22;8.93;;;4.13;;
65368;SDS011;51970;53.484;49.488;2023-08-06T09:30:50;10.68;;;2.25;;
65368;SDS011;51970;53.484;49.488;2023-08-06T09:33:20;6.72;;;3.50;;
65368;SDS011;51970;53.484;49.488;2023-08-06T09:35:54;7.80;;;3.65;;
65368;SDS011;51970;53.484;49.488;2023-08-06T09:38:26;6.40;;;3.50;;
65368;SDS011;51970;53.484;49.488;2023-08-06T09:41:08;16.48;;;4.05;;
65368;SDS011;51970;53.484;49.488;2023-08-06T09:43:40;13.73;;;5.95;;
65368;SDS011;51970;53.484;49.488;2023-08-06T09:46:13;6.55;;;3.60;;
65368;SDS011;51970;53.484;49.488;2023-08-06T09:48:45;10.60;;;4.18;;
65368;SDS011;51970;53.484;49.488;2023-08-06T09:51:17;6.05;;;3.88;;
65368;SDS011;51970;53.484;49.488;2023-08-06T09:53:48;7.82;;;3.85;;
65368;SDS011;51970;53.484;49.488;2023-08-06T09:56:21;7.63;;;3.60;;
65368;SDS011;51970;53.484;49.488;2023-08-06T09:58:52;7.18;;;2.47;;
65368;SDS011;51970;53.484;49.488;2023-08-06T10:01:24;8.73;;;4.47;;
65368;SDS011;51970;53.484;49.488;2023-08-06T10:03:56;12.27;;;4.03;;
65368;SDS011;51970;53.484;49.488;2023-08-06T10:06:29;10.05;;;4.18;;
65368;SDS011;51970;53.484;49.488;2023-08-06T10:09:00;7.13;;;4.55;;
65368;SDS011;51970;53.484;49.488;2023-08-06T10:11:32;6.95;;;3.67;;
65368;SDS011;51970;53.484;49.488;2023-08-06T10:14:06;7.35;;;2.38;;
65368;SDS011;51970;53.484;49.488;2023-08-06T10:16:42;9.38;;;3.78;;
65368;SDS011;51970;53.484;49.488;2023-08-06T10:19:14;8.75;;;4.32;;
65368;SDS011;51970;53.484;49.488;2023-08-06T10:27:33;7.50;;;3.35;;
65368;SDS011;51970;53.484;49.488;2023-08-06T10:38:20;7.38;;;3.60;;
65368;SDS011;51970;53.484;49.488;2023-08-06T10:43:26;6.82;;;4.25;;
65368;SDS011;51970;53.484;49.488;2023-08-06T10:45:58;7.47;;;3.83;;
65368;SDS011;51970;53.484;49.488;2023-08-06T10:48:39;15.15;;;5.35;;
65368;SDS011;51970;53.484;49.488;2023-08-06T10:51:07;15.13;;;4.72;;
65368;SDS011;51970;53.484;49.488;2023-08-06T10:53:35;6.50;;;3.25;;
65368;SDS011;51970;53.484;49.488;2023-08-06T10:56:11;6.93;;;3.50;;
65368;SDS011;51970;53.484;49.488;2023-08-06T10:58:41;10.10;;;4.15;;
65368;SDS011;51970;53.484;49.488;2023-08-06T11:01:09;9.80;;;3.50;;
65368;SDS011;51970;53.484;49.488;2023-08-06T11:03:36;8.32;;;3.95;;
65368;SDS011;51970;53.484;49.488;2023-08-06T11:06:03;12.85;;;4.28;;
65368;SDS011;51970;53.484;49.488;2023-08-06T11:08:34;9.25;;;4.03;;
65368;SDS011;51970;53.484;49.488;2023-08-06T11:11:12;9.93;;;3.88;;
65368;SDS011;51970;53.484;49.488;2023-08-06T11:16:07;8.68;;;3.83;;
65368;SDS011;51970;53.484;49.488;2023-08-06T11:18:33;7.70;;;3.78;;
65368;SDS011;51970;53.484;49.488;2023-08-06T11:21:00;9.27;;;4.35;;
65368;SDS011;51970;53.484;49.488;2023-08-06T11:23:28;10.02;;;4.13;;
65368;SDS011;51970;53.484;49.488;2023-08-06T11:25:55;12.52;;;3.55;;
65368;SDS011;51970;53.484;49.488;2023-08-06T11:28:22;8.20;;;3.55;;
65368;SDS011;51970;53.484;49.488;2023-08-06T11:30:48;8.38;;;4.63;;
65368;SDS011;51970;53.484;49.488;2023-08-06T11:33:22;6.07;;;3.15;;
65368;SDS011;51970;53.484;49.488;2023-08-06T11:35:51;7.70;;;4.25;;
65368;SDS011;51970;53.484;49.488;2023-08-06T11:38:18;21.52;;;8.48;;
65368;SDS011;51970;53.484;49.488;2023-08-06T11:40:44;23.83;;;11.82;;
65368;SDS011;51970;53.484;49.488;2023-08-06T11:43:14;8.65;;;4.47;;
65368;SDS011;51970;53.484;49.488;2023-08-06T11:45:40;11.73;;;7.82;;
65368;SDS011;51970;53.484;49.488;2023-08-06T11:48:07;6.03;;;3.28;;
65368;SDS011;51970;53.484;49.488;2023-08-06T11:50:37;15.98;;;8.55;;
65368;SDS011;51970;53.484;49.488;2023-08-06T11:53:06;9.85;;;4.00;;
65368;SDS011;51970;53.484;49.488;2023-08-06T11:55:32;8.15;;;3.42;;
65368;SDS011;51970;53.484;49.488;2023-08-06T11:58:02;23.90;;;12.48;;
65368;SDS011;51970;53.484;49.488;2023-08-06T12:00:30;13.95;;;7.28;;
65368;SDS011;51970;53.484;49.488;2023-08-06T12:02:56;10.75;;;6.40;;
65368;SDS011;51970;53.484;49.488;2023-08-06T12:05:23;7.90;;;4.93;;
65368;SDS011;51970;53.484;49.488;2023-08-06T12:07:56;7.20;;;3.40;;
65368;SDS011;51970;53.484;49.488;2023-08-06T12:10:27;6.43;;;3.25;;
65368;SDS011;51970;53.484;49.488;2023-08-06T12:12:55;8.80;;;3.42;;
65368;SDS011;51970;53.484;49.488;2023-08-06T12:15:21;14.52;;;3.70;;
65368;SDS011;51970;53.484;49.488;2023-08-06T12:17:49;6.75;;;2.95;;
65368;SDS011;51970;53.484;49.488;2023-08-06T12:20:15;5.75;;;2.95;;
65368;SDS011;51970;53.484;49.488;2023-08-06T12:22:41;17.15;;;6.40;;
65368;SDS011;51970;53.484;49.488;2023-08-06T12:25:08;13.07;;;4.57;;
65368;SDS011;51970;53.484;49.488;2023-08-06T12:27:38;11.88;;;5.68;;
65368;SDS011;51970;53.484;49.488;2023-08-06T12:30:07;10.35;;;4.13;;
65368;SDS011;51970;53.484;49.488;2023-08-06T12:32:37;7.82;;;3.75;;
65368;SDS011;51970;53.484;49.488;2023-08-06T12:35:04;6.97;;;2.95;;
65368;SDS011;51970;53.484;49.488;2023-08-06T12:37:33;7.57;;;2.78;;
65368;SDS011;51970;53.484;49.488;2023-08-06T12:39:59;9.18;;;3.67;;
65368;SDS011;51970;53.484;49.488;2023-08-06T12:42:25;12.98;;;6.85;;
65368;SDS011;51970;53.484;49.488;2023-08-06T12:44:51;13.52;;;5.35;;
65368;SDS011;51970;53.484;49.488;2023-08-06T12:47:18;9.95;;;4.82;;
65368;SDS011;51970;53.484;49.488;2023-08-06T12:49:45;9.95;;;5.03;;
65368;SDS011;51970;53.484;49.488;2023-08-06T12:52:11;7.18;;;3.53;;
65368;SDS011;51970;53.484;49.488;2023-08-06T12:54:41;28.15;;;12.55;;
65368;SDS011;51970;53.484;49.488;2023-08-06T12:57:07;20.73;;;13.25;;
65368;SDS011;51970;53.484;49.488;2023-08-06T12:59:34;20.77;;;9.00;;
65368;SDS011;51970;53.484;49.488;2023-08-06T13:02:02;10.57;;;4.20;;
65368;SDS011;51970;53.484;49.488;2023-08-06T13:04:29;9.05;;;4.72;;
65368;SDS011;51970;53.484;49.488;2023-08-06T13:06:56;10.18;;;3.63;;
65368;SDS011;51970;53.484;49.488;2023-08-06T13:09:22;11.57;;;5.30;;
65368;SDS011;51970;53.484;49.488;2023-08-06T13:11:48;13.77;;;4.15;;
65368;SDS011;51970;53.484;49.488;2023-08-06T13:14:15;6.60;;;3.88;;
65368;SDS011;51970;53.484;49.488;2023-08-06T13:16:42;14.63;;;8.43;;
65368;SDS011;51970;53.484;49.488;2023-08-06T13:19:10;12.55;;;5.05;;
65368;SDS011;51970;53.484;49.488;2023-08-06T13:24:08;8.40;;;4.38;;
65368;SDS011;51970;53.484;49.488;2023-08-06T13:26:35;7.32;;;3.72;;
65368;SDS011;51970;53.484;49.488;2023-08-06T13:29:01;7.90;;;2.80;;
65368;SDS011;51970;53.484;49.488;2023-08-06T13:31:28;7.28;;;2.60;;
65368;SDS011;51970;53.484;49.488;2023-08-06T13:33:55;9.75;;;2.95;;
65368;SDS011;51970;53.484;49.488;2023-08-06T13:36:23;5.70;;;2.55;;
65368;SDS011;51970;53.484;49.488;2023-08-06T13:38:53;11.98;;;4.30;;
65368;SDS011;51970;53.484;49.488;2023-08-06T13:41:19;5.93;;;2.38;;
65368;SDS011;51970;53.484;49.488;2023-08-06T13:43:45;5.95;;;2.88;;
65368;SDS011;51970;53.484;49.488;2023-08-06T13:46:12;5.60;;;2.95;;
65368;SDS011;51970;53.484;49.488;2023-08-06T13:48:46;9.38;;;4.45;;
65368;SDS011;51970;53.484;49.488;2023-08-06T13:51:13;11.57;;;5.70;;
65368;SDS011;51970;53.484;49.488;2023-08-06T13:53:39;8.52;;;4.30;;
65368;SDS011;51970;53.484;49.488;2023-08-06T13:56:06;9.55;;;5.00;;
65368;SDS011;51970;53.484;49.488;2023-08-06T13:58:32;10.13;;;3.42;;
65368;SDS011;51970;53.484;49.488;2023-08-06T14:00:59;8.90;;;3.90;;
65368;SDS011;51970;53.484;49.488;2023-08-06T14:03:25;9.57;;;3.70;;
65368;SDS011;51970;53.484;49.488;2023-08-06T14:05:51;8.88;;;3.55;;
65368;SDS011;51970;53.484;49.488;2023-08-06T14:08:18;5.95;;;3.05;;
65368;SDS011;51970;53.484;49.488;2023-08-06T14:10:44;6.20;;;3.15;;
65368;SDS011;51970;53.484;49.488;2023-08-06T14:13:10;9.38;;;3.33;;
65368;SDS011;51970;53.484;49.488;2023-08-06T14:15:37;11.88;;;3.75;;
65368;SDS011;51970;53.484;49.488;2023-08-06T14:18:06;6.10;;;3.47;;
65368;SDS011;51970;53.484;49.488;2023-08-06T14:20:34;7.72;;;3.55;;
65368;SDS011;51970;53.484;49.488;2023-08-06T14:23:00;6.35;;;3.05;;
65368;SDS011;51970;53.484;49.488;2023-08-06T14:25:26;6.15;;;1.95;;
65368;SDS011;51970;53.484;49.488;2023-08-06T14:27:52;7.13;;;3.38;;
65368;SDS011;51970;53.484;49.488;2023-08-06T14:30:18;11.63;;;3.60;;
65368;SDS011;51970;53.484;49.488;2023-08-06T14:32:45;11.40;;;4.25;;
65368;SDS011;51970;53.484;49.488;2023-08-06T14:35:11;11.43;;;3.78;;
65368;SDS011;51970;53.484;49.488;2023-08-06T14:37:37;9.00;;;2.97;;
65368;SDS011;51970;53.484;49.488;2023-08-06T14:40:05;8.40;;;3.22;;
65368;SDS011;51970;53.484;49.488;2023-08-06T14:42:32;9.57;;;3.72;;
65368;SDS011;51970;53.484;49.488;2023-08-06T14:44:58;12.35;;;3.83;;
65368;SDS011;51970;53.484;49.488;2023-08-06T14:47:24;8.80;;;3.42;;
65368;SDS011;51970;53.484;49.488;2023-08-06T14:49:50;11.40;;;2.75;;
65368;SDS011;51970;53.484;49.488;2023-08-06T14:52:16;6.43;;;2.78;;
65368;SDS011;51970;53.484;49.488;2023-08-06T14:54:42;9.80;;;2.80;;
65368;SDS011;51970;53.484;49.488;2023-08-06T14:57:11;6.32;;;3.03;;
65368;SDS011;51970;53.484;49.488;2023-08-06T14:59:39;12.45;;;3.10;;
65368;SDS011;51970;53.484;49.488;2023-08-06T15:02:05;7.22;;;2.67;;